Time;durP1;ratioP1;P1;durP2;ratioP2;P2;SDS_P1;SDS_P2;PMS_P1;PMS_P2;Temp;Humidity;BMP_temperature;BMP_pressure;BME280_temperature;BME280_humidity;BME280_pressure;Samples;Min_cycle;Max_cycle;Signal;HPM_P1;HPM_P2
2024/01/04 00:00:03;;;;;;;3.30;0.45;;;7.10;99.90;;;;;;5133590;27;20040;-67
2024/01/04 00:02:30;;;;;;;3.30;0.38;;;7.00;99.90;;;;;;5098085;28;20390;-67
2024/01/04 00:04:59;;;;;;;1.60;0.40;;;7.00;99.90;;;;;;5101531;28;20048;-67
2024/01/04 00:07:25;;;;;;;4.93;0.50;;;7.00;99.90;;;;;;5099072;28;20087;-67
2024/01/04 00:09:51;;;;;;;4.55;0.60;;;7.00;99.90;;;;;;5101343;28;20040;-67
2024/01/04 00:12:18;;;;;;;4.65;0.35;;;7.00;99.90;;;;;;5095282;28;20210;-67
2024/01/04 00:14:43;;;;;;;1.10;0.40;;;6.90;99.90;;;;;;5131371;27;20111;-67
2024/01/04 00:17:09;;;;;;;4.60;0.60;;;7.00;99.90;;;;;;5099965;28;21087;-67
2024/01/04 00:19:35;;;;;;;2.28;0.50;;;7.00;99.90;;;;;;5098786;28;20039;-67
2024/01/04 00:22:00;;;;;;;1.75;0.50;;;7.00;99.90;;;;;;5098383;28;20050;-67
2024/01/04 00:24:26;;;;;;;3.08;0.60;;;6.90;99.90;;;;;;5097996;27;20123;-67
2024/01/04 00:26:52;;;;;;;2.00;0.40;;;6.90;99.90;;;;;;5103203;28;20035;-67
2024/01/04 00:29:17;;;;;;;3.15;0.70;;;6.90;99.90;;;;;;5102967;27;20047;-67
2024/01/04 00:31:43;;;;;;;6.80;0.60;;;6.90;99.90;;;;;;5099765;27;20044;-67
2024/01/04 00:34:09;;;;;;;3.40;0.47;;;6.90;99.90;;;;;;5135203;27;20382;-67
2024/01/04 00:36:35;;;;;;;2.97;0.43;;;6.90;99.90;;;;;;5102849;27;20135;-67
2024/01/04 00:39:00;;;;;;;4.18;0.63;;;6.90;99.90;;;;;;5104012;28;20040;-67
2024/01/04 00:41:26;;;;;;;1.95;0.40;;;6.90;99.90;;;;;;5101077;27;21735;-67
2024/01/04 00:43:52;;;;;;;4.57;0.73;;;6.80;99.90;;;;;;5103601;27;20163;-67
2024/01/04 00:46:18;;;;;;;1.13;0.20;;;6.80;99.90;;;;;;5106335;27;20046;-67
2024/01/04 00:48:44;;;;;;;2.58;0.60;;;6.80;99.90;;;;;;5100586;27;20379;-67
2024/01/04 00:51:09;;;;;;;2.70;0.40;;;6.80;99.90;;;;;;5115047;27;20039;-67
2024/01/04 00:53:35;;;;;;;5.38;0.80;;;6.80;99.90;;;;;;5087322;27;20597;-67
2024/01/04 00:56:01;;;;;;;3.80;0.50;;;6.80;99.90;;;;;;5101986;27;20083;-67
2024/01/04 00:58:26;;;;;;;5.75;0.75;;;6.80;99.90;;;;;;5097937;27;20046;-67
2024/01/04 01:00:52;;;;;;;3.25;0.50;;;6.70;99.90;;;;;;5100973;27;20183;-67
2024/01/04 01:03:18;;;;;;;5.68;1.60;;;6.60;99.90;;;;;;5106959;27;20131;-67
2024/01/04 01:05:43;;;;;;;1.95;0.30;;;6.60;99.90;;;;;;5084688;27;20538;-67
2024/01/04 01:08:10;;;;;;;5.15;0.50;;;6.60;99.90;;;;;;5135062;27;20032;-67
2024/01/04 01:10:36;;;;;;;6.32;0.80;;;6.80;99.90;;;;;;5101806;27;20069;-67
2024/01/04 01:13:01;;;;;;;7.25;0.77;;;6.50;99.90;;;;;;5108104;27;20024;-67
2024/01/04 01:15:27;;;;;;;4.22;0.65;;;6.40;99.90;;;;;;5086556;27;20096;-67
2024/01/04 01:17:54;;;;;;;3.67;0.50;;;6.50;99.90;;;;;;5133176;27;20148;-67
2024/01/04 01:20:20;;;;;;;8.77;0.55;;;6.40;99.90;;;;;;5103210;27;20138;-67
2024/01/04 01:22:46;;;;;;;5.00;0.93;;;6.40;99.90;;;;;;5099533;27;20047;-67
2024/01/04 01:25:11;;;;;;;5.55;0.57;;;6.40;99.90;;;;;;5103254;27;20413;-67
2024/01/04 01:27:37;;;;;;;1.90;0.50;;;6.40;99.90;;;;;;5088623;28;20045;-67
2024/01/04 01:30:03;;;;;;;3.58;0.60;;;6.40;99.90;;;;;;5133616;27;20088;-67
2024/01/04 01:32:29;;;;;;;3.83;0.90;;;6.40;99.90;;;;;;5101415;27;20031;-67
2024/01/04 01:34:54;;;;;;;5.97;0.73;;;6.30;99.90;;;;;;5102284;27;20084;-67
2024/01/04 01:37:21;;;;;;;2.38;0.70;;;6.30;99.90;;;;;;5134882;27;21290;-67
2024/01/04 01:39:47;;;;;;;2.65;0.40;;;6.30;99.90;;;;;;5102013;27;20046;-67
2024/01/04 01:42:13;;;;;;;5.93;0.52;;;6.30;99.90;;;;;;5133968;27;20043;-67
2024/01/04 01:44:38;;;;;;;5.82;0.68;;;6.30;99.90;;;;;;5101009;27;20036;-67
2024/01/04 01:47:05;;;;;;;2.20;0.40;;;6.30;99.90;;;;;;5100617;27;20091;-67
2024/01/04 01:49:32;;;;;;;2.88;0.40;;;6.30;99.90;;;;;;5101783;27;20054;-67
2024/01/04 01:51:58;;;;;;;4.20;0.68;;;6.30;99.90;;;;;;5100801;28;20047;-67
2024/01/04 01:54:24;;;;;;;5.07;0.38;;;6.30;99.90;;;;;;5103521;27;20044;-67
2024/01/04 01:56:50;;;;;;;5.22;0.55;;;6.20;99.90;;;;;;5102268;28;20468;-67
2024/01/04 01:59:16;;;;;;;3.65;0.57;;;6.20;99.90;;;;;;5102186;28;20050;-67
2024/01/04 02:01:42;;;;;;;4.63;0.40;;;6.20;99.90;;;;;;5102559;27;20043;-67
2024/01/04 02:04:08;;;;;;;7.43;0.55;;;6.20;99.90;;;;;;5100313;27;20039;-67
2024/01/04 02:06:33;;;;;;;4.85;0.35;;;6.20;99.90;;;;;;5099532;27;20116;-67
2024/01/04 02:08:59;;;;;;;8.27;0.60;;;6.20;99.90;;;;;;5097996;27;20065;-67
2024/01/04 02:11:26;;;;;;;3.08;0.50;;;6.20;99.90;;;;;;5099031;28;20065;-67
2024/01/04 02:13:52;;;;;;;5.47;0.73;;;6.20;99.90;;;;;;5132503;27;20036;-67
2024/01/04 02:16:18;;;;;;;2.15;0.20;;;6.90;99.90;;;;;;5102100;27;20047;-67
2024/01/04 02:18:44;;;;;;;2.45;0.40;;;6.20;99.90;;;;;;5098418;27;20085;-67
2024/01/04 02:21:10;;;;;;;2.45;0.40;;;6.10;99.90;;;;;;5097979;28;20557;-67
2024/01/04 02:23:35;;;;;;;4.03;0.57;;;6.10;99.90;;;;;;5098983;27;20057;-67
2024/01/04 02:26:01;;;;;;;5.28;1.05;;;6.10;99.90;;;;;;5100392;27;20773;-67
2024/01/04 02:28:27;;;;;;;3.70;0.30;;;6.10;99.90;;;;;;5101164;27;20050;-67
2024/01/04 02:30:53;;;;;;;2.47;0.30;;;6.00;99.90;;;;;;5097053;28;20043;-67
2024/01/04 02:33:19;;;;;;;3.25;0.40;;;6.00;99.90;;;;;;5133135;27;20035;-67
2024/01/04 02:35:44;;;;;;;4.53;0.40;;;6.00;99.90;;;;;;5102988;27;20032;-67
2024/01/04 02:38:10;;;;;;;1.15;0.20;;;6.00;99.90;;;;;;5096403;27;20031;-67
2024/01/04 02:40:36;;;;;;;1.45;0.20;;;6.00;99.90;;;;;;5102239;27;20048;-67
2024/01/04 02:43:02;;;;;;;4.50;0.50;;;6.00;99.90;;;;;;5100337;28;20040;-67
2024/01/04 02:45:28;;;;;;;2.40;0.60;;;5.90;99.90;;;;;;5132138;27;20277;-67
2024/01/04 02:47:54;;;;;;;6.95;0.50;;;6.80;99.90;;;;;;5096112;28;20039;-67
2024/01/04 02:50:19;;;;;;;4.05;0.73;;;6.00;99.90;;;;;;5100768;28;20049;-67
2024/01/04 02:52:45;;;;;;;3.97;0.60;;;6.00;99.90;;;;;;5100105;27;20032;-67
2024/01/04 02:55:11;;;;;;;3.40;0.30;;;6.00;99.90;;;;;;5086123;28;20351;-67
2024/01/04 02:57:36;;;;;;;2.88;0.50;;;6.00;99.90;;;;;;5097154;28;20044;-67
2024/01/04 03:00:03;;;;;;;2.72;0.20;;;5.90;99.90;;;;;;5096724;27;20485;-67
2024/01/04 03:02:28;;;;;;;6.30;0.40;;;5.90;99.90;;;;;;5117184;27;20104;-67
2024/01/04 03:04:54;;;;;;;3.10;0.28;;;5.90;99.90;;;;;;5100787;28;20474;-67
2024/01/04 03:07:20;;;;;;;2.42;0.35;;;5.90;99.90;;;;;;5133197;27;20065;-67
2024/01/04 03:09:48;;;;;;;4.80;0.45;;;5.90;99.90;;;;;;5132101;27;20385;-67
2024/01/04 03:12:14;;;;;;;4.07;0.38;;;5.90;99.90;;;;;;5095072;28;20048;-67
2024/01/04 03:14:39;;;;;;;2.58;0.20;;;5.90;99.90;;;;;;5099105;28;20379;-67
2024/01/04 03:17:05;;;;;;;3.05;0.20;;;5.90;99.90;;;;;;5099044;27;20035;-67
2024/01/04 03:19:31;;;;;;;3.25;0.20;;;5.90;99.90;;;;;;5100401;28;20082;-67
2024/01/04 03:21:56;;;;;;;5.90;0.60;;;5.90;99.90;;;;;;5130617;27;20071;-67
2024/01/04 03:24:22;;;;;;;1.55;0.20;;;5.90;99.90;;;;;;5098818;28;20506;-67
2024/01/04 03:26:48;;;;;;;2.75;0.98;;;5.90;99.90;;;;;;5102431;28;20051;-67
2024/01/04 03:29:13;;;;;;;5.80;0.35;;;5.90;99.90;;;;;;5096864;28;21986;-67
2024/01/04 03:31:39;;;;;;;3.15;0.22;;;5.80;99.90;;;;;;5102528;28;20486;-67
2024/01/04 03:34:05;;;;;;;2.95;0.57;;;5.90;99.90;;;;;;5100123;28;20039;-67
2024/01/04 03:36:31;;;;;;;5.75;1.45;;;5.90;99.90;;;;;;5104798;28;20059;-67
2024/01/04 03:38:57;;;;;;;2.63;0.22;;;5.90;99.90;;;;;;5131209;27;20070;-67
2024/01/04 03:41:23;;;;;;;4.38;0.28;;;5.90;99.90;;;;;;5096079;28;20052;-67
2024/01/04 03:43:49;;;;;;;1.55;0.32;;;5.80;99.90;;;;;;5102339;28;20505;-67
2024/01/04 03:46:15;;;;;;;3.63;0.40;;;5.80;99.90;;;;;;5099849;28;20036;-67
2024/01/04 03:48:40;;;;;;;3.53;0.38;;;5.80;99.90;;;;;;5115740;27;20143;-67
2024/01/04 03:51:06;;;;;;;2.90;0.32;;;5.80;99.90;;;;;;5097007;28;20405;-67
2024/01/04 03:53:32;;;;;;;2.63;0.25;;;5.90;99.90;;;;;;5103307;28;20031;-67
2024/01/04 03:55:58;;;;;;;5.43;0.30;;;6.30;99.90;;;;;;5132233;27;20494;-67
2024/01/04 03:58:23;;;;;;;1.88;0.20;;;5.70;99.90;;;;;;5099211;28;20078;-67
2024/01/04 04:00:49;;;;;;;3.33;0.25;;;5.80;99.90;;;;;;5102260;28;20071;-67
2024/01/04 04:03:19;;;;;;;1.40;0.20;;;5.70;99.90;;;;;;5105298;27;20038;-67
2024/01/04 04:05:45;;;;;;;3.30;0.73;;;5.70;99.90;;;;;;5136151;27;20050;-67
2024/01/04 04:08:11;;;;;;;0.60;0.10;;;5.70;99.90;;;;;;5104849;27;20046;-67
2024/01/04 04:10:37;;;;;;;3.13;0.20;;;5.70;99.90;;;;;;5087620;27;20039;-67
2024/01/04 04:13:02;;;;;;;2.15;0.15;;;5.70;99.90;;;;;;5104611;27;21766;-67
2024/01/04 04:15:28;;;;;;;3.90;0.45;;;5.60;99.90;;;;;;5119101;27;20043;-67
2024/01/04 04:17:55;;;;;;;4.60;0.50;;;5.70;99.90;;;;;;5104329;28;20060;-67
2024/01/04 04:20:21;;;;;;;1.58;0.17;;;5.70;99.90;;;;;;5100430;27;20039;-67
2024/01/04 04:22:46;;;;;;;3.40;0.35;;;5.60;99.90;;;;;;5101700;27;20043;-67
2024/01/04 04:25:12;;;;;;;1.92;0.65;;;5.70;99.90;;;;;;5133699;27;20040;-67
2024/01/04 04:27:38;;;;;;;2.30;0.25;;;5.60;99.90;;;;;;5102118;27;20044;-67
2024/01/04 04:30:05;;;;;;;1.75;0.40;;;5.60;99.90;;;;;;5103497;27;20394;-67
2024/01/04 04:32:31;;;;;;;5.20;0.40;;;5.50;99.90;;;;;;5130502;27;20043;-67
2024/01/04 04:34:56;;;;;;;1.98;0.73;;;5.60;99.90;;;;;;5105921;27;20035;-67
2024/01/04 04:37:22;;;;;;;3.13;0.30;;;5.50;99.90;;;;;;5103413;27;20390;-67
2024/01/04 04:39:48;;;;;;;2.05;0.30;;;5.40;99.90;;;;;;5104787;27;20036;-67
2024/01/04 04:42:14;;;;;;;3.17;0.55;;;5.40;99.90;;;;;;5100558;27;20059;-67
2024/01/04 04:44:39;;;;;;;3.85;0.20;;;5.40;99.90;;;;;;5135556;27;20734;-67
2024/01/04 04:47:05;;;;;;;4.47;0.40;;;5.40;99.90;;;;;;5135343;27;20088;-67
2024/01/04 04:49:31;;;;;;;1.85;0.30;;;5.40;99.90;;;;;;5103492;27;20039;-67
2024/01/04 04:51:57;;;;;;;0.95;0.20;;;5.40;99.90;;;;;;5103468;27;20159;-67
2024/01/04 04:54:24;;;;;;;2.83;0.20;;;5.40;99.90;;;;;;5102263;27;20036;-67
2024/01/04 04:56:50;;;;;;;3.35;0.35;;;5.30;99.90;;;;;;5103354;27;20054;-67
2024/01/04 04:59:16;;;;;;;1.55;0.20;;;5.40;99.90;;;;;;5139089;27;20407;-67
2024/01/04 05:01:44;;;;;;;3.85;0.25;;;5.40;99.90;;;;;;5097707;27;20043;-67
2024/01/04 05:04:10;;;;;;;3.42;0.40;;;5.30;99.90;;;;;;5103026;27;20047;-67
2024/01/04 05:06:35;;;;;;;4.45;0.52;;;5.30;99.90;;;;;;5100522;27;20046;-67
2024/01/04 05:09:01;;;;;;;2.70;0.45;;;5.30;99.90;;;;;;5105286;27;20159;-67
2024/01/04 05:11:27;;;;;;;3.28;1.58;;;5.30;99.90;;;;;;5134369;27;20039;-67
2024/01/04 05:13:52;;;;;;;4.95;0.45;;;5.30;99.90;;;;;;5100989;27;20124;-67
2024/01/04 05:16:19;;;;;;;2.08;0.20;;;5.30;99.90;;;;;;5105417;27;20051;-67
2024/01/04 05:18:45;;;;;;;3.72;0.40;;;5.20;99.90;;;;;;5102982;27;20055;-67
2024/01/04 05:21:11;;;;;;;2.35;0.22;;;5.20;99.90;;;;;;5101025;27;20031;-67
2024/01/04 05:23:37;;;;;;;1.45;0.25;;;5.30;99.90;;;;;;5104212;27;20082;-66
2024/01/04 05:26:02;;;;;;;1.73;0.35;;;5.20;99.90;;;;;;5101925;27;20051;-67
2024/01/04 05:28:28;;;;;;;5.35;0.35;;;5.20;99.90;;;;;;5103589;27;20148;-67
2024/01/04 05:30:54;;;;;;;2.83;0.28;;;5.30;99.90;;;;;;5101463;27;20066;-67
2024/01/04 05:33:19;;;;;;;2.60;0.20;;;5.20;99.90;;;;;;5103172;28;20051;-67
2024/01/04 05:35:45;;;;;;;2.53;0.30;;;5.30;99.90;;;;;;5099400;27;20035;-67
2024/01/04 05:38:11;;;;;;;3.90;0.47;;;5.20;99.90;;;;;;5119599;27;20054;-67
2024/01/04 05:40:37;;;;;;;1.88;0.30;;;5.20;99.90;;;;;;5099446;27;20039;-67
2024/01/04 05:43:03;;;;;;;4.68;0.38;;;5.30;99.90;;;;;;5134621;27;20047;-67
2024/01/04 05:45:28;;;;;;;3.85;0.30;;;5.20;99.90;;;;;;5102308;27;20040;-67
2024/01/04 05:47:54;;;;;;;5.30;0.32;;;5.30;99.90;;;;;;5103238;27;20044;-66
2024/01/04 05:50:20;;;;;;;3.20;0.28;;;5.20;99.90;;;;;;5103625;27;20096;-67
2024/01/04 05:52:45;;;;;;;1.65;0.17;;;5.20;99.90;;;;;;5100076;27;20085;-67
2024/01/04 05:55:11;;;;;;;2.35;0.30;;;5.20;99.90;;;;;;5105092;27;20047;-67
2024/01/04 05:57:37;;;;;;;3.10;0.60;;;5.20;99.90;;;;;;5100523;27;20123;-67
2024/01/04 06:00:04;;;;;;;2.33;0.20;;;5.20;99.90;;;;;;5133464;27;20041;-67
2024/01/04 06:02:30;;;;;;;1.95;0.20;;;5.10;99.90;;;;;;5097881;27;20047;-67
2024/01/04 06:04:55;;;;;;;1.65;0.20;;;5.10;99.90;;;;;;5100213;28;20063;-67
2024/01/04 06:07:22;;;;;;;1.42;0.20;;;5.10;99.90;;;;;;5102033;27;20119;-67
2024/01/04 06:09:47;;;;;;;2.38;0.43;;;5.20;99.90;;;;;;5100356;27;20039;-66
2024/01/04 06:12:13;;;;;;;2.40;0.40;;;5.10;99.90;;;;;;5096995;28;20379;-67
2024/01/04 06:14:39;;;;;;;7.25;0.68;;;5.10;99.90;;;;;;5099384;27;20032;-67
2024/01/04 06:17:05;;;;;;;2.80;0.30;;;5.10;99.90;;;;;;5129514;27;20073;-67
2024/01/04 06:19:30;;;;;;;1.52;0.30;;;5.10;99.90;;;;;;5101246;27;20122;-67
2024/01/04 06:21:56;;;;;;;4.15;0.22;;;5.10;99.90;;;;;;5096217;28;20173;-67
2024/01/04 06:24:24;;;;;;;3.80;0.55;;;5.00;99.90;;;;;;5098210;27;20116;-66
2024/01/04 06:26:49;;;;;;;4.57;1.10;;;5.10;99.90;;;;;;5096258;28;20036;-67
2024/01/04 06:29:15;;;;;;;3.38;0.30;;;5.10;99.90;;;;;;5099780;27;20046;-67
2024/01/04 06:31:41;;;;;;;5.15;0.32;;;5.10;99.90;;;;;;5093892;27;20035;-67
2024/01/04 06:34:06;;;;;;;4.85;0.30;;;5.10;99.90;;;;;;5102456;27;20035;-67
2024/01/04 06:36:32;;;;;;;2.85;0.40;;;5.10;99.90;;;;;;5101625;27;20054;-67
2024/01/04 06:38:58;;;;;;;3.40;0.30;;;5.10;99.90;;;;;;5099023;27;20483;-67
2024/01/04 06:41:29;;;;;;;2.03;0.20;;;5.60;99.90;;;;;;5096151;27;20094;-67
2024/01/04 06:43:55;;;;;;;1.73;0.40;;;5.00;99.90;;;;;;5096387;27;20126;-67
2024/01/04 06:46:21;;;;;;;2.13;0.20;;;5.00;99.90;;;;;;5098780;28;20040;-67
2024/01/04 06:48:46;;;;;;;2.38;0.20;;;5.00;99.90;;;;;;5095061;28;20059;-67
2024/01/04 06:51:12;;;;;;;5.65;0.60;;;5.00;99.90;;;;;;5098024;27;20084;-67
2024/01/04 06:53:38;;;;;;;2.30;0.13;;;5.00;99.90;;;;;;5129532;27;20458;-67
2024/01/04 06:56:04;;;;;;;5.63;0.50;;;5.00;99.90;;;;;;5097522;28;20050;-66
2024/01/04 06:58:30;;;;;;;2.20;0.30;;;5.00;99.90;;;;;;5133571;27;20051;-67
2024/01/04 07:00:56;;;;;;;3.97;0.40;;;5.00;99.90;;;;;;5095718;27;20051;-67
2024/01/04 07:03:22;;;;;;;3.85;0.20;;;5.00;99.90;;;;;;5096348;27;20047;-67
2024/01/04 07:05:49;;;;;;;1.42;0.22;;;5.00;99.90;;;;;;5098928;27;20036;-67
2024/01/04 07:08:14;;;;;;;3.13;0.25;;;5.00;99.90;;;;;;5096906;28;20047;-67
2024/01/04 07:10:40;;;;;;;2.22;0.77;;;5.00;99.90;;;;;;5097085;27;20040;-67
2024/01/04 07:13:07;;;;;;;3.67;0.73;;;5.00;99.90;;;;;;5099553;27;20035;-67
2024/01/04 07:15:33;;;;;;;1.85;0.30;;;5.00;99.90;;;;;;5103549;28;20032;-67
2024/01/04 07:17:59;;;;;;;2.13;0.47;;;5.10;99.90;;;;;;5133419;27;20122;-67
2024/01/04 07:20:24;;;;;;;1.75;0.30;;;5.00;99.90;;;;;;5102365;28;20043;-67
2024/01/04 07:22:52;;;;;;;3.33;0.35;;;5.00;99.90;;;;;;5114653;27;20051;-67
2024/01/04 07:25:19;;;;;;;1.60;0.25;;;5.00;99.90;;;;;;5097868;28;20141;-67
2024/01/04 07:27:45;;;;;;;4.03;0.70;;;5.00;99.90;;;;;;5100935;28;20047;-67
2024/01/04 07:30:10;;;;;;;10.07;2.28;;;5.00;99.90;;;;;;5100481;28;20486;-67
2024/01/04 07:32:36;;;;;;;2.08;0.32;;;5.00;99.90;;;;;;5100492;28;20071;-67
2024/01/04 07:35:03;;;;;;;3.78;0.30;;;5.00;99.90;;;;;;5102214;27;20478;-67
2024/01/04 07:37:29;;;;;;;2.72;0.65;;;5.00;99.90;;;;;;5104409;27;20040;-67
2024/01/04 07:39:54;;;;;;;6.47;0.88;;;5.00;99.90;;;;;;5108110;27;20088;-67
2024/01/04 07:42:20;;;;;;;6.18;0.60;;;5.00;99.90;;;;;;5104327;27;20126;-67
2024/01/04 07:44:46;;;;;;;1.65;0.35;;;4.90;99.90;;;;;;5101784;27;20162;-66
2024/01/04 07:47:12;;;;;;;3.13;0.38;;;5.00;99.90;;;;;;5107774;28;20093;-67
2024/01/04 07:49:37;;;;;;;2.80;0.30;;;4.90;99.90;;;;;;5106010;28;20042;-67
2024/01/04 07:52:03;;;;;;;2.83;0.25;;;4.90;99.90;;;;;;5103167;27;20043;-67
2024/01/04 07:54:29;;;;;;;2.92;0.40;;;5.00;99.90;;;;;;5105716;27;20040;-67
2024/01/04 07:56:55;;;;;;;2.90;0.38;;;4.90;99.90;;;;;;5104423;28;20046;-67
2024/01/04 07:59:22;;;;;;;2.10;0.63;;;4.90;99.90;;;;;;5107151;27;20501;-66
2024/01/04 08:01:49;;;;;;;3.50;0.28;;;4.90;99.90;;;;;;5103900;28;20044;-67
2024/01/04 08:04:14;;;;;;;2.38;0.20;;;5.00;99.90;;;;;;5102722;27;20066;-67
2024/01/04 08:06:40;;;;;;;2.50;0.28;;;5.00;99.90;;;;;;5104783;27;20081;-67
2024/01/04 08:09:06;;;;;;;4.55;0.40;;;5.00;99.90;;;;;;5130033;27;20044;-67
2024/01/04 08:11:32;;;;;;;5.95;0.30;;;5.00;99.90;;;;;;5102563;27;20052;-67
2024/01/04 08:13:58;;;;;;;2.20;0.30;;;5.00;99.90;;;;;;5101470;27;20027;-67
2024/01/04 08:16:24;;;;;;;4.05;0.28;;;5.00;99.90;;;;;;5102550;28;20094;-67
2024/01/04 08:18:50;;;;;;;2.33;0.30;;;5.00;99.90;;;;;;5101303;27;20047;-66
2024/01/04 08:21:16;;;;;;;3.15;0.50;;;5.00;99.90;;;;;;5100954;28;20039;-67
2024/01/04 08:23:42;;;;;;;4.40;0.57;;;5.00;99.90;;;;;;5103594;27;20458;-68
2024/01/04 08:26:09;;;;;;;1.50;0.30;;;5.00;99.90;;;;;;5122272;27;20040;-67
2024/01/04 08:28:36;;;;;;;3.47;0.20;;;5.10;99.90;;;;;;5105929;27;20152;-67
2024/01/04 08:31:02;;;;;;;2.80;0.40;;;5.10;99.90;;;;;;5102478;27;20667;-67
2024/01/04 08:33:28;;;;;;;2.50;0.43;;;5.00;99.90;;;;;;5103662;27;20151;-67
2024/01/04 08:35:53;;;;;;;3.50;0.73;;;5.00;99.90;;;;;;5104810;28;20460;-67
2024/01/04 08:38:19;;;;;;;3.15;0.40;;;5.00;99.90;;;;;;5134448;27;20054;-67
2024/01/04 08:40:44;;;;;;;4.70;0.60;;;5.10;99.90;;;;;;5103983;28;20047;-67
2024/01/04 08:43:10;;;;;;;4.43;0.30;;;5.10;99.90;;;;;;5137638;27;20043;-67
2024/01/04 08:45:36;;;;;;;3.13;0.45;;;5.10;99.90;;;;;;5104472;27;20687;-67
2024/01/04 08:48:01;;;;;;;3.92;0.60;;;5.10;99.90;;;;;;5135191;27;20040;-67
2024/01/04 08:50:27;;;;;;;3.10;0.60;;;5.10;99.90;;;;;;5135766;27;20093;-67
2024/01/04 08:52:53;;;;;;;1.77;0.30;;;5.10;99.90;;;;;;5104379;27;20042;-67
2024/01/04 08:55:20;;;;;;;5.53;0.30;;;5.20;99.90;;;;;;5108351;28;20090;-67
2024/01/04 08:57:46;;;;;;;2.58;0.40;;;5.20;99.90;;;;;;5101788;27;20047;-67
2024/01/04 09:00:12;;;;;;;4.15;1.10;;;5.20;99.90;;;;;;5102120;28;20042;-67
2024/01/04 09:02:38;;;;;;;1.73;0.28;;;5.20;99.90;;;;;;5101501;28;20166;-67
2024/01/04 09:05:04;;;;;;;1.08;0.22;;;5.20;99.90;;;;;;5136085;27;20460;-67
2024/01/04 09:07:30;;;;;;;3.95;0.50;;;5.20;99.90;;;;;;5102485;27;20084;-67
2024/01/04 09:09:55;;;;;;;1.65;0.20;;;5.30;99.90;;;;;;5103707;28;20043;-67
2024/01/04 09:12:21;;;;;;;3.75;0.63;;;5.30;99.90;;;;;;5102108;27;20051;-67
2024/01/04 09:14:47;;;;;;;2.42;0.22;;;5.30;99.90;;;;;;5103705;27;20070;-67
2024/01/04 09:17:12;;;;;;;4.05;0.52;;;5.30;99.90;;;;;;5094616;27;20147;-67
2024/01/04 09:19:40;;;;;;;3.70;0.40;;;5.70;99.90;;;;;;5095977;27;20050;-67
2024/01/04 09:22:07;;;;;;;2.40;0.40;;;5.30;99.90;;;;;;5103030;27;20047;-67
2024/01/04 09:24:33;;;;;;;1.27;0.22;;;5.40;99.90;;;;;;5091766;27;20040;-67
2024/01/04 09:27:00;;;;;;;7.43;0.57;;;5.50;99.90;;;;;;5090880;27;20043;-67
2024/01/04 09:29:26;;;;;;;3.70;0.30;;;5.50;99.90;;;;;;5090015;27;20039;-67
2024/01/04 09:31:51;;;;;;;3.72;0.85;;;5.50;99.90;;;;;;5089408;27;21511;-67
2024/01/04 09:34:17;;;;;;;3.42;0.45;;;5.70;99.90;;;;;;5119568;27;20058;-67
2024/01/04 09:36:43;;;;;;;4.07;0.57;;;5.60;99.90;;;;;;5095378;27;20039;-67
2024/01/04 09:39:14;;;;;;;4.38;0.40;;;5.60;99.90;;;;;;5091381;27;20040;-67
2024/01/04 09:41:44;;;;;;;4.97;0.50;;;5.70;99.90;;;;;;5088734;27;20055;-67
2024/01/04 09:44:11;;;;;;;4.75;0.45;;;5.70;99.90;;;;;;5091843;27;20047;-67
2024/01/04 09:46:38;;;;;;;4.38;0.95;;;5.70;99.90;;;;;;5089622;27;21790;-67
2024/01/04 09:49:06;;;;;;;4.40;0.45;;;5.60;99.90;;;;;;5094380;27;20042;-67
2024/01/04 09:51:36;;;;;;;3.83;0.43;;;5.60;99.90;;;;;;5093100;27;20054;-67
2024/01/04 09:54:03;;;;;;;1.90;0.30;;;5.60;99.90;;;;;;5096047;27;20035;-67
2024/01/04 09:56:30;;;;;;;2.47;0.30;;;5.60;99.90;;;;;;5095956;27;20163;-67
2024/01/04 09:58:56;;;;;;;3.05;0.22;;;5.70;99.90;;;;;;5092005;27;20047;-66
2024/01/04 10:01:30;;;;;;;3.08;0.30;;;5.60;99.90;;;;;;5089892;27;20035;-67
2024/01/04 10:03:59;;;;;;;3.42;0.40;;;5.70;99.90;;;;;;5089115;27;20044;-67
2024/01/04 10:06:32;;;;;;;4.03;0.47;;;5.60;99.90;;;;;;5095880;27;20119;-67
2024/01/04 10:09:18;;;;;;;1.10;0.20;;;5.70;99.90;;;;;;5094224;27;20135;-67
2024/01/04 10:12:05;;;;;;;3.50;0.20;;;5.70;99.90;;;;;;5084537;27;20055;-67
2024/01/04 10:14:32;;;;;;;1.95;0.30;;;5.70;99.90;;;;;;5093349;27;20040;-67
2024/01/04 10:17:01;;;;;;;6.15;0.20;;;5.90;99.90;;;;;;5095409;27;20054;-67
2024/01/04 10:19:28;;;;;;;1.65;0.30;;;5.80;99.90;;;;;;5076318;27;20043;-67
2024/01/04 10:22:01;;;;;;;1.63;0.20;;;5.80;99.90;;;;;;5089643;27;20208;-67
2024/01/04 10:24:29;;;;;;;1.63;0.30;;;5.80;99.90;;;;;;5088390;27;20082;-67
2024/01/04 10:26:57;;;;;;;1.38;0.20;;;5.80;99.90;;;;;;5093073;27;20052;-67
2024/01/04 10:29:27;;;;;;;3.70;0.25;;;5.80;99.90;;;;;;5095695;27;20534;-67
2024/01/04 10:32:03;;;;;;;5.50;0.30;;;5.80;99.90;;;;;;5088340;27;20043;-67
2024/01/04 10:34:29;;;;;;;;;;;5.80;99.90;;;;;;5094007;27;20051;-67
2024/01/04 10:37:08;;;;;;;;;;;5.70;99.90;;;;;;5124567;27;20377;-67
2024/01/04 10:39:35;;;;;;;4.25;0.25;;;5.80;99.90;;;;;;5093334;27;19919;-67
2024/01/04 10:42:01;;;;;;;1.20;0.20;;;5.70;99.90;;;;;;5091045;27;20035;-67
2024/01/04 10:44:28;;;;;;;1.98;0.52;;;5.80;99.90;;;;;;5093027;27;20112;-66
2024/01/04 10:46:58;;;;;;;1.48;0.28;;;5.80;99.90;;;;;;5096036;27;20127;-67
2024/01/04 10:49:24;;;;;;;2.60;0.40;;;5.80;99.90;;;;;;5104887;27;20098;-67
2024/01/04 10:51:57;;;;;;;2.47;0.25;;;5.70;99.90;;;;;;5090233;27;20043;-67
2024/01/04 10:54:33;;;;;;;2.60;0.30;;;5.70;99.90;;;;;;5096041;27;20067;-67
2024/01/04 10:57:00;;;;;;;1.83;0.20;;;5.70;99.90;;;;;;5094045;27;20048;-67
2024/01/04 10:59:31;;;;;;;2.95;0.50;;;5.70;99.90;;;;;;5093287;27;20039;-67
2024/01/04 11:02:01;;;;;;;0.85;0.20;;;5.70;99.90;;;;;;5092727;27;20131;-67
2024/01/04 11:04:27;;;;;;;2.20;0.28;;;5.70;99.90;;;;;;5092873;27;20047;-67
2024/01/04 11:06:53;;;;;;;1.00;0.28;;;5.70;99.90;;;;;;5094610;27;21502;-67
2024/01/04 11:09:20;;;;;;;1.55;0.10;;;5.70;99.90;;;;;;5091587;28;20031;-67
2024/01/04 11:11:54;;;;;;;1.95;0.50;;;5.70;99.90;;;;;;5087780;27;21047;-67
2024/01/04 11:14:21;;;;;;;4.80;0.40;;;5.70;99.90;;;;;;5091899;27;20039;-67
2024/01/04 11:17:00;;;;;;;0.73;0.20;;;5.70;99.90;;;;;;5124765;27;20078;-67
2024/01/04 11:19:40;;;;;;;0.65;0.10;;;5.70;99.90;;;;;;5102297;28;20045;-67
2024/01/04 11:22:17;;;;;;;5.47;0.50;;;5.70;99.90;;;;;;5126921;27;20048;-66
2024/01/04 11:24:58;;;;;;;0.75;0.10;;;5.70;99.90;;;;;;5132188;27;20093;-67
2024/01/04 11:27:24;;;;;;;1.95;0.30;;;5.80;99.90;;;;;;5134563;27;20131;-67
2024/01/04 11:29:50;;;;;;;4.93;0.73;;;5.70;99.90;;;;;;5099266;28;20047;-67
2024/01/04 11:32:16;;;;;;;0.85;0.10;;;5.80;99.90;;;;;;5131072;27;20048;-67
2024/01/04 11:34:44;;;;;;;8.07;0.95;;;5.80;99.90;;;;;;5098293;28;20040;-67
2024/01/04 11:37:10;;;;;;;3.17;0.68;;;5.80;99.90;;;;;;5101537;28;20084;-67
2024/01/04 11:39:58;;;;;;;4.05;0.60;;;5.90;99.90;;;;;;5100375;28;20490;-67
2024/01/04 11:42:38;;;;;;;2.55;0.25;;;5.90;99.90;;;;;;5101143;28;20032;-67
2024/01/04 11:45:13;;;;;;;2.33;0.20;;;6.00;99.90;;;;;;5102262;28;20028;-67
2024/01/04 11:47:41;;;;;;;1.40;0.20;;;6.00;99.90;;;;;;5101185;28;20117;-67
2024/01/04 11:50:28;;;;;;;3.33;0.20;;;6.00;99.90;;;;;;5094636;28;20051;-67
2024/01/04 11:53:08;;;;;;;2.33;0.30;;;6.00;99.90;;;;;;5072375;28;20042;-67
2024/01/04 11:55:36;;;;;;;1.98;0.20;;;6.00;99.90;;;;;;5094155;28;20076;-67
2024/01/04 11:58:09;;;;;;;3.05;0.30;;;6.00;99.90;;;;;;5093256;28;20062;-67
2024/01/04 12:00:36;;;;;;;0.85;0.25;;;5.90;99.90;;;;;;5089984;28;20589;-67
2024/01/04 12:03:14;;;;;;;6.63;0.20;;;6.00;99.90;;;;;;5093465;28;20116;-67
2024/01/04 12:05:45;;;;;;;3.72;0.25;;;5.90;99.90;;;;;;5094864;28;20047;-66
2024/01/04 12:08:30;;;;;;;2.05;0.20;;;5.90;99.90;;;;;;5099700;28;20043;-67
2024/01/04 12:10:58;;;;;;;0.70;0.20;;;5.80;99.90;;;;;;5120894;27;20734;-67
2024/01/04 12:13:24;;;;;;;2.53;0.38;;;5.70;99.90;;;;;;5126181;27;20040;-67
2024/01/04 12:15:51;;;;;;;3.25;0.20;;;5.70;99.90;;;;;;5123664;27;20096;-67
2024/01/04 12:18:17;;;;;;;1.17;0.22;;;5.70;99.90;;;;;;5095659;28;20039;-67
2024/01/04 12:20:46;;;;;;;1.52;0.30;;;5.70;99.90;;;;;;5097261;27;20121;-67
2024/01/04 12:23:12;;;;;;;1.65;0.20;;;5.70;99.90;;;;;;5095505;27;20070;-67
2024/01/04 12:25:39;;;;;;;1.50;0.20;;;5.70;99.90;;;;;;5094801;27;20375;-67
2024/01/04 12:28:09;;;;;;;1.60;0.20;;;6.60;99.90;;;;;;5096984;27;20989;-67
2024/01/04 12:30:40;;;;;;;2.83;0.40;;;5.70;99.90;;;;;;5095610;27;20496;-67
2024/01/04 12:33:08;;;;;;;2.60;0.30;;;5.70;99.90;;;;;;5094952;27;20088;-67
2024/01/04 12:35:34;;;;;;;3.53;0.20;;;5.70;99.90;;;;;;5094917;27;20071;-67
2024/01/04 12:38:04;;;;;;;4.03;0.50;;;5.70;99.90;;;;;;5095205;27;20142;-67
2024/01/04 12:40:45;;;;;;;1.33;0.20;;;5.80;99.90;;;;;;5094954;27;20054;-67
2024/01/04 12:43:15;;;;;;;2.47;0.20;;;5.70;99.90;;;;;;5092401;27;20044;-67
2024/01/04 12:45:41;;;;;;;1.60;0.38;;;5.70;99.90;;;;;;5097249;27;20036;-67
2024/01/04 12:48:07;;;;;;;2.35;0.30;;;5.70;99.90;;;;;;5126080;27;20107;-67
2024/01/04 12:50:35;;;;;;;2.58;0.25;;;5.70;99.90;;;;;;5094956;27;20158;-68
2024/01/04 12:53:01;;;;;;;2.05;0.20;;;5.70;99.90;;;;;;5092337;27;20085;-67
2024/01/04 12:55:28;;;;;;;4.10;0.75;;;5.70;99.90;;;;;;5094378;27;20047;-67